createdAt,value
2023-05-15T00:00:02.817Z,2.80
2023-05-15T00:01:02.775Z,3.00
2023-05-15T00:02:02.844Z,2.90
2023-05-15T00:03:02.804Z,2.60
2023-05-15T00:04:02.845Z,2.60
2023-05-15T00:05:02.779Z,2.60
2023-05-15T00:06:02.751Z,2.80
2023-05-15T00:07:02.696Z,2.90
2023-05-15T00:08:02.684Z,3.00
2023-05-15T00:09:02.683Z,3.00
2023-05-15T00:10:02.669Z,2.70
2023-05-15T00:11:02.662Z,3.10
2023-05-15T00:12:02.648Z,3.00
2023-05-15T00:13:02.620Z,2.90
2023-05-15T00:14:02.648Z,2.70
2023-05-15T00:15:02.615Z,3.00
2023-05-15T00:16:02.750Z,2.90
2023-05-15T00:17:02.612Z,2.90
2023-05-15T00:18:02.705Z,3.10
2023-05-15T00:19:02.644Z,3.00
2023-05-15T00:20:02.770Z,3.30
2023-05-15T00:21:02.548Z,3.50
2023-05-15T00:22:02.568Z,3.40
2023-05-15T00:23:02.569Z,3.00
2023-05-15T00:24:02.783Z,3.00
2023-05-15T00:25:02.509Z,3.00
2023-05-15T00:26:02.612Z,3.20
2023-05-15T00:27:02.472Z,2.90
2023-05-15T00:28:02.499Z,3.20
2023-05-15T00:29:02.454Z,3.00
2023-05-15T00:30:02.493Z,3.80
2023-05-15T00:31:02.554Z,3.90
2023-05-15T00:32:02.442Z,4.40
2023-05-15T00:33:02.452Z,5.30
2023-05-15T00:34:02.437Z,5.80
2023-05-15T00:35:02.412Z,6.10
2023-05-15T00:36:02.477Z,6.40
2023-05-15T00:37:02.393Z,6.30
2023-05-15T00:38:03.413Z,6.60
2023-05-15T00:39:02.420Z,6.80
2023-05-15T00:40:02.397Z,7.70
2023-05-15T00:41:02.339Z,7.80
2023-05-15T00:42:02.432Z,8.60
2023-05-15T00:43:02.310Z,8.90
2023-05-15T00:44:02.392Z,9.50
2023-05-15T00:45:02.299Z,9.30
2023-05-15T00:46:02.369Z,9.90
2023-05-15T00:47:02.317Z,9.80
2023-05-15T00:48:02.331Z,11.10
2023-05-15T00:49:02.250Z,11.00
2023-05-15T00:50:02.287Z,11.40
2023-05-15T00:51:02.219Z,11.10
2023-05-15T00:52:02.236Z,12.40
2023-05-15T00:53:02.212Z,12.40
2023-05-15T00:54:02.298Z,11.80
2023-05-15T00:55:02.178Z,12.40
2023-05-15T00:56:02.294Z,12.10
2023-05-15T00:57:02.158Z,12.80
2023-05-15T00:58:02.225Z,13.40
2023-05-15T00:59:02.150Z,13.60
2023-05-15T01:00:02.121Z,13.00
2023-05-15T01:01:02.131Z,13.30
2023-05-15T01:02:02.121Z,13.30
2023-05-15T01:03:02.250Z,13.30
2023-05-15T01:04:02.154Z,13.30
2023-05-15T01:05:02.083Z,13.40
2023-05-15T01:06:02.076Z,13.00
2023-05-15T01:07:02.037Z,13.40
2023-05-15T01:08:02.052Z,13.20
2023-05-15T01:09:02.025Z,13.40
2023-05-15T01:10:02.014Z,13.70
2023-05-15T01:11:02.005Z,13.50
2023-05-15T01:12:01.995Z,13.70
2023-05-15T01:13:01.970Z,13.40
2023-05-15T01:14:01.968Z,13.50
2023-05-15T01:15:01.958Z,13.80
2023-05-15T01:16:01.968Z,13.20
2023-05-15T01:17:01.940Z,13.40
2023-05-15T01:18:01.988Z,12.90
2023-05-15T01:19:02.014Z,13.20
2023-05-15T01:20:01.950Z,12.40
2023-05-15T01:21:01.900Z,12.90
2023-05-15T01:22:01.926Z,13.50
2023-05-15T01:23:01.859Z,13.10
2023-05-15T01:24:01.897Z,12.40
2023-05-15T01:25:01.844Z,13.30
2023-05-15T01:26:01.826Z,13.00
2023-05-15T01:27:01.872Z,12.90
2023-05-15T01:28:01.825Z,13.50
2023-05-15T01:29:01.805Z,13.50
2023-05-15T01:30:01.832Z,13.80
2023-05-15T01:31:01.795Z,14.10
2023-05-15T01:32:01.869Z,14.00
2023-05-15T01:33:01.838Z,14.30
2023-05-15T01:34:01.801Z,15.40
2023-05-15T01:35:01.727Z,14.70
2023-05-15T01:36:01.758Z,15.10
2023-05-15T01:37:01.721Z,14.60
2023-05-15T01:38:01.737Z,14.80
2023-05-15T01:39:01.673Z,14.30
2023-05-15T01:40:01.677Z,14.40
2023-05-15T01:41:01.672Z,14.50
2023-05-15T01:42:01.667Z,15.00
2023-05-15T01:43:01.635Z,14.90
2023-05-15T01:44:01.673Z,15.60
2023-05-15T01:45:01.643Z,15.60
2023-05-15T01:46:01.697Z,16.30
2023-05-15T01:47:01.611Z,16.50
2023-05-15T01:48:01.681Z,16.80
2023-05-15T01:49:01.586Z,16.90
2023-05-15T01:50:01.610Z,18.70
2023-05-15T01:51:01.551Z,18.30
2023-05-15T01:52:01.566Z,17.20
2023-05-15T01:53:01.522Z,17.50
2023-05-15T01:54:01.525Z,18.40
2023-05-15T01:55:01.514Z,19.40
2023-05-15T01:56:01.561Z,17.50
2023-05-15T01:57:01.491Z,17.80
2023-05-15T01:58:01.474Z,18.20
2023-05-15T01:59:01.470Z,18.50
2023-05-15T02:00:01.464Z,18.60
2023-05-15T02:01:01.445Z,18.60
2023-05-15T02:02:01.528Z,21.30
2023-05-15T02:03:01.466Z,22.10
2023-05-15T02:04:01.562Z,20.50
2023-05-15T02:05:01.411Z,19.50
2023-05-15T02:06:01.384Z,21.30
2023-05-15T02:07:01.364Z,20.90
2023-05-15T02:08:01.371Z,22.00
2023-05-15T02:09:01.365Z,22.00
2023-05-15T02:10:01.361Z,21.80
2023-05-15T02:11:01.444Z,20.10
2023-05-15T02:12:01.346Z,21.00
2023-05-15T02:13:01.334Z,21.40
2023-05-15T02:14:01.308Z,21.40
2023-05-15T02:15:01.305Z,22.50
2023-05-15T02:16:01.308Z,22.10
2023-05-15T02:17:01.269Z,24.00
2023-05-15T02:18:01.286Z,22.70
2023-05-15T02:19:01.305Z,23.60
2023-05-15T02:20:01.228Z,21.50
2023-05-15T02:21:01.235Z,24.40
2023-05-15T02:22:01.218Z,23.60
2023-05-15T02:23:01.205Z,23.90
2023-05-15T02:24:01.199Z,26.30
2023-05-15T02:25:01.179Z,27.30
2023-05-15T02:26:01.166Z,27.30
2023-05-15T02:27:01.148Z,27.90
2023-05-15T02:28:01.156Z,26.30
2023-05-15T02:29:01.144Z,26.70
2023-05-15T02:30:01.121Z,27.20
2023-05-15T02:31:01.097Z,27.90
2023-05-15T02:32:01.159Z,27.80
2023-05-15T02:33:01.156Z,26.60
2023-05-15T02:34:01.090Z,26.60
2023-05-15T02:35:01.085Z,28.50
2023-05-15T02:36:01.052Z,29.60
2023-05-15T02:37:01.049Z,30.00
2023-05-15T02:38:01.048Z,30.30
2023-05-15T02:39:01.034Z,30.80
2023-05-15T02:40:01.014Z,31.80
2023-05-15T02:41:01.011Z,32.40
2023-05-15T02:42:02.775Z,31.70
2023-05-15T02:43:01.004Z,31.60
2023-05-15T02:44:00.980Z,33.80
2023-05-15T02:45:00.954Z,35.50
2023-05-15T02:46:00.980Z,35.60
2023-05-15T02:47:00.932Z,35.30
2023-05-15T02:48:01.007Z,35.70
2023-05-15T02:49:00.907Z,35.60
2023-05-15T02:50:00.921Z,36.50
2023-05-15T02:51:00.890Z,36.90
2023-05-15T02:52:00.888Z,38.30
2023-05-15T02:53:00.884Z,37.20
2023-05-15T02:54:00.877Z,38.60
2023-05-15T02:55:00.843Z,39.10
2023-05-15T02:56:00.859Z,40.00
2023-05-15T02:57:00.815Z,40.40
2023-05-15T02:58:00.818Z,39.70
2023-05-15T02:59:00.801Z,40.30
2023-05-15T03:00:00.808Z,41.60
2023-05-15T03:01:00.863Z,40.10
2023-05-15T03:02:00.783Z,41.80
2023-05-15T03:03:00.804Z,42.90
2023-05-15T03:04:00.783Z,44.20
2023-05-15T03:05:00.765Z,42.20
2023-05-15T03:06:00.768Z,43.80
2023-05-15T03:07:00.711Z,43.60
2023-05-15T03:08:00.704Z,44.20
2023-05-15T03:09:00.693Z,45.60
2023-05-15T03:10:00.719Z,45.90
2023-05-15T03:11:00.680Z,46.30
2023-05-15T03:12:00.664Z,44.90
2023-05-15T03:13:00.647Z,46.10
2023-05-15T03:14:00.676Z,48.80
2023-05-15T03:15:00.641Z,47.90
2023-05-15T03:16:00.618Z,47.80
2023-05-15T03:17:00.623Z,48.30
2023-05-15T03:18:00.654Z,48.40
2023-05-15T03:19:00.633Z,48.10
2023-05-15T03:20:00.581Z,49.40
2023-05-15T03:21:00.556Z,50.00
2023-05-15T03:22:00.553Z,50.00
2023-05-15T03:23:00.538Z,47.70
2023-05-15T03:24:00.581Z,48.60
2023-05-15T03:25:00.509Z,47.30
2023-05-15T03:26:00.529Z,46.70
2023-05-15T03:27:00.498Z,48.30
2023-05-15T03:28:00.505Z,50.30
2023-05-15T03:29:00.579Z,50.70
2023-05-15T03:30:00.475Z,49.60
2023-05-15T03:31:00.480Z,51.00
2023-05-15T03:32:00.511Z,49.50
2023-05-15T03:33:00.478Z,49.40
2023-05-15T03:34:00.412Z,50.20
2023-05-15T03:35:00.398Z,49.30
2023-05-15T03:36:00.391Z,48.60
2023-05-15T03:37:00.382Z,49.80
2023-05-15T03:38:00.381Z,49.10
2023-05-15T03:39:00.373Z,47.80
2023-05-15T03:40:00.342Z,49.40
2023-05-15T03:41:00.338Z,49.00
2023-05-15T03:42:00.415Z,50.30
2023-05-15T03:43:00.325Z,52.70
2023-05-15T03:44:00.305Z,50.90
2023-05-15T03:45:00.311Z,50.40
2023-05-15T03:46:00.290Z,51.40
2023-05-15T03:47:00.382Z,53.50
2023-05-15T03:48:00.265Z,53.50
2023-05-15T03:49:00.262Z,53.10
2023-05-15T03:50:00.297Z,51.50
2023-05-15T03:51:00.213Z,51.50
2023-05-15T03:52:00.218Z,51.60
2023-05-15T03:53:00.259Z,52.10
2023-05-15T03:54:00.188Z,52.30
2023-05-15T03:55:00.242Z,51.80
2023-05-15T03:56:00.164Z,52.30
2023-05-15T03:57:00.169Z,51.10
2023-05-15T03:58:00.133Z,50.90
2023-05-15T03:59:00.158Z,50.90
2023-05-15T04:00:00.807Z,48.70
2023-05-15T04:01:00.137Z,50.30
2023-05-15T04:02:05.111Z,49.20
2023-05-15T04:03:01.216Z,50.50
2023-05-15T04:04:00.115Z,48.30
2023-05-15T04:05:00.206Z,49.50
2023-05-15T04:06:00.109Z,48.00
2023-05-15T04:07:00.049Z,48.10
2023-05-15T04:08:00.041Z,48.00
2023-05-15T04:09:00.013Z,47.70
2023-05-15T04:10:00.021Z,46.60
2023-05-15T04:11:00.029Z,45.70
2023-05-15T04:11:59.982Z,45.80
2023-05-15T04:12:59.976Z,45.50
2023-05-15T04:13:59.967Z,44.10
2023-05-15T04:14:59.963Z,45.70
2023-05-15T04:15:59.999Z,43.20
2023-05-15T04:16:59.934Z,43.60
2023-05-15T04:17:59.982Z,42.90
2023-05-15T04:18:59.930Z,42.40
2023-05-15T04:19:59.910Z,42.00
2023-05-15T04:20:59.894Z,41.60
2023-05-15T04:21:59.887Z,41.00
2023-05-15T04:22:59.869Z,40.00
2023-05-15T04:23:59.850Z,41.20
2023-05-15T04:24:59.865Z,42.00
2023-05-15T04:25:59.843Z,41.20
2023-05-15T04:26:59.893Z,41.60
2023-05-15T04:27:59.814Z,43.00
2023-05-15T04:29:03.962Z,42.90
2023-05-15T04:29:59.809Z,42.50
2023-05-15T04:30:59.801Z,43.10
2023-05-15T04:31:59.822Z,41.70
2023-05-15T04:32:59.784Z,41.60
2023-05-15T04:33:59.812Z,39.70
2023-05-15T04:34:59.732Z,41.10
2023-05-15T04:35:59.718Z,39.80
2023-05-15T04:36:59.717Z,39.70
2023-05-15T04:37:59.721Z,39.60
2023-05-15T04:38:59.712Z,37.70
2023-05-15T04:39:59.670Z,38.10
2023-05-15T04:40:59.667Z,37.50
2023-05-15T04:41:59.674Z,37.20
2023-05-15T04:42:59.646Z,35.90
2023-05-15T04:43:59.644Z,36.30
2023-05-15T04:44:59.621Z,35.70
2023-05-15T04:46:01.547Z,35.00
2023-05-15T04:47:02.101Z,37.10
2023-05-15T04:48:00.724Z,36.90
2023-05-15T04:49:03.317Z,36.70
2023-05-15T04:49:59.984Z,37.40
2023-05-15T04:51:04.811Z,37.90
2023-05-15T04:51:59.743Z,37.80
2023-05-15T04:53:01.324Z,38.80
2023-05-15T04:53:59.551Z,39.70
2023-05-15T04:54:59.802Z,38.50
2023-05-15T04:55:59.502Z,38.30
2023-05-15T04:56:59.497Z,39.50
2023-05-15T04:57:59.489Z,38.70
2023-05-15T04:58:59.506Z,39.90
2023-05-15T04:59:59.452Z,40.50
2023-05-15T05:01:01.405Z,40.20
2023-05-15T05:01:59.492Z,41.50
2023-05-15T05:02:59.742Z,40.40
2023-05-15T05:03:59.490Z,39.90
2023-05-15T05:04:59.419Z,41.00
2023-05-15T05:05:59.385Z,41.30
2023-05-15T05:06:59.379Z,41.10
2023-05-15T05:07:59.379Z,42.00
2023-05-15T05:08:59.380Z,42.00
2023-05-15T05:09:59.345Z,42.70
2023-05-15T05:10:59.355Z,41.10
2023-05-15T05:11:59.340Z,41.50
2023-05-15T05:12:59.315Z,43.00
2023-05-15T05:13:59.314Z,41.70
2023-05-15T05:14:59.295Z,41.20
2023-05-15T05:15:59.341Z,42.10
2023-05-15T05:16:59.317Z,40.70
2023-05-15T05:17:59.321Z,42.20
2023-05-15T05:18:59.322Z,41.50
2023-05-15T05:19:59.245Z,41.60
2023-05-15T05:20:59.236Z,41.10
2023-05-15T05:21:59.227Z,41.00
2023-05-15T05:22:59.202Z,43.00
2023-05-15T05:23:59.206Z,41.70
2023-05-15T05:24:59.177Z,41.80
2023-05-15T05:25:59.186Z,42.40
2023-05-15T05:26:59.174Z,41.00
2023-05-15T05:27:59.154Z,42.30
2023-05-15T05:28:59.132Z,41.50
2023-05-15T05:29:59.133Z,41.10
2023-05-15T05:30:59.179Z,42.50
2023-05-15T05:31:59.343Z,41.20
2023-05-15T05:32:59.181Z,42.50
2023-05-15T05:33:59.085Z,42.70
2023-05-15T05:34:59.122Z,44.80
2023-05-15T05:35:59.072Z,45.10
2023-05-15T05:36:59.056Z,45.30
2023-05-15T05:37:59.041Z,44.10
2023-05-15T05:38:59.050Z,45.20
2023-05-15T05:39:59.042Z,42.40
2023-05-15T05:40:59.011Z,44.80
2023-05-15T05:41:59.006Z,42.80
2023-05-15T05:42:58.978Z,43.00
2023-05-15T05:43:58.997Z,44.20
2023-05-15T05:44:58.991Z,44.30
2023-05-15T05:45:58.955Z,43.50
2023-05-15T05:46:58.978Z,44.90
2023-05-15T05:47:59.018Z,44.80
2023-05-15T05:48:58.915Z,42.30
2023-05-15T05:49:58.913Z,42.40
2023-05-15T05:50:58.950Z,42.20
2023-05-15T05:51:58.893Z,42.20
2023-05-15T05:52:58.871Z,42.10
2023-05-15T05:53:58.885Z,39.30
2023-05-15T05:54:58.847Z,39.20
2023-05-15T05:55:58.848Z,40.90
2023-05-15T05:56:58.822Z,40.30
2023-05-15T05:57:58.827Z,40.10
2023-05-15T05:58:58.812Z,38.70
2023-05-15T05:59:58.792Z,38.30
2023-05-15T06:00:58.777Z,38.40
2023-05-15T06:01:58.845Z,38.60
2023-05-15T06:02:58.944Z,37.60
2023-05-15T06:03:58.875Z,37.80
2023-05-15T06:04:58.740Z,38.60
2023-05-15T06:05:58.730Z,38.00
2023-05-15T06:06:58.775Z,38.70
2023-05-15T06:07:58.741Z,38.80
2023-05-15T06:08:58.699Z,39.30
2023-05-15T06:09:58.685Z,38.90
2023-05-15T06:10:58.680Z,39.90
2023-05-15T06:11:58.662Z,38.90
2023-05-15T06:12:58.651Z,40.20
2023-05-15T06:13:58.644Z,40.10
2023-05-15T06:14:58.653Z,40.40
2023-05-15T06:15:58.626Z,39.90
2023-05-15T06:16:58.775Z,39.10
2023-05-15T06:17:58.646Z,38.80
2023-05-15T06:18:58.662Z,40.00
2023-05-15T06:19:58.667Z,41.20
2023-05-15T06:20:58.619Z,43.30
2023-05-15T06:21:58.593Z,42.40
2023-05-15T06:22:58.538Z,43.00
2023-05-15T06:23:58.535Z,44.50
2023-05-15T06:24:58.516Z,44.40
2023-05-15T06:25:58.512Z,46.10
2023-05-15T06:26:58.504Z,46.70
2023-05-15T06:27:58.528Z,47.90
2023-05-15T06:28:58.476Z,49.50
2023-05-15T06:29:58.495Z,49.20
2023-05-15T06:30:58.492Z,45.90
2023-05-15T06:31:58.451Z,41.00
2023-05-15T06:32:58.459Z,40.70
2023-05-15T06:33:58.419Z,38.30
2023-05-15T06:34:58.402Z,39.00
2023-05-15T06:35:58.426Z,40.10
2023-05-15T06:36:58.391Z,41.30
2023-05-15T06:37:58.620Z,40.30
2023-05-15T06:38:58.383Z,40.70
2023-05-15T06:39:58.385Z,38.60
2023-05-15T06:40:58.364Z,39.70
2023-05-15T06:42:02.214Z,37.40
2023-05-15T06:42:58.321Z,35.70
2023-05-15T06:43:58.317Z,34.80
2023-05-15T06:44:58.351Z,35.30
2023-05-15T06:45:58.319Z,36.20
2023-05-15T06:46:58.377Z,39.00
2023-05-15T06:48:01.474Z,42.10
2023-05-15T06:48:58.256Z,42.70
2023-05-15T06:49:58.259Z,42.30
2023-05-15T06:50:58.235Z,40.90
2023-05-15T06:51:58.228Z,40.50
2023-05-15T06:52:58.228Z,40.80
2023-05-15T06:53:58.227Z,41.50
2023-05-15T06:54:58.201Z,39.80
2023-05-15T06:55:58.181Z,39.20
2023-05-15T06:56:58.178Z,39.60
2023-05-15T06:57:58.158Z,42.10
2023-05-15T06:58:58.161Z,43.90
2023-05-15T06:59:58.137Z,45.30
2023-05-15T07:00:59.397Z,45.10
2023-05-15T07:01:58.147Z,45.60
2023-05-15T07:02:58.137Z,43.50
2023-05-15T07:03:58.103Z,44.10
2023-05-15T07:04:58.104Z,43.50
2023-05-15T07:05:58.064Z,42.60
2023-05-15T07:06:58.086Z,43.30
2023-05-15T07:07:58.074Z,42.50
2023-05-15T07:08:58.072Z,41.60
2023-05-15T07:09:58.020Z,42.80
2023-05-15T07:10:58.021Z,44.50
2023-05-15T07:11:58.003Z,44.80
2023-05-15T07:12:58.007Z,45.70
2023-05-15T07:13:58.005Z,45.30
2023-05-15T07:14:57.966Z,43.50
2023-05-15T07:15:57.957Z,46.20
2023-05-15T07:16:57.972Z,46.40
2023-05-15T07:17:58.060Z,43.80
2023-05-15T07:18:57.970Z,44.00
2023-05-15T07:19:57.920Z,44.20
2023-05-15T07:20:57.907Z,45.10
2023-05-15T07:21:57.903Z,46.30
2023-05-15T07:22:57.892Z,47.00
2023-05-15T07:23:57.880Z,45.70
2023-05-15T07:24:57.858Z,47.80
2023-05-15T07:25:57.845Z,46.10
2023-05-15T07:26:59.101Z,49.20
2023-05-15T07:27:57.843Z,47.40
2023-05-15T07:28:57.815Z,47.10
2023-05-15T07:29:57.809Z,46.50
2023-05-15T07:30:57.792Z,45.60
2023-05-15T07:31:57.971Z,46.80
2023-05-15T07:32:57.828Z,47.20
2023-05-15T07:33:57.764Z,46.40
2023-05-15T07:34:57.759Z,46.00
2023-05-15T07:35:57.747Z,44.60
2023-05-15T07:36:57.735Z,41.50
2023-05-15T07:37:57.730Z,41.40
2023-05-15T07:38:57.705Z,42.10
2023-05-15T07:39:57.730Z,40.90
2023-05-15T07:40:57.697Z,41.70
2023-05-15T07:41:57.674Z,41.80
2023-05-15T07:42:57.658Z,42.20
2023-05-15T07:43:57.645Z,43.20
2023-05-15T07:44:57.712Z,43.80
2023-05-15T07:45:57.658Z,44.20
2023-05-15T07:46:57.618Z,44.30
2023-05-15T07:47:57.666Z,44.70
2023-05-15T07:48:57.583Z,42.80
2023-05-15T07:49:57.594Z,44.10
2023-05-15T07:50:57.593Z,44.70
2023-05-15T07:51:57.568Z,44.90
2023-05-15T07:52:57.550Z,44.50
2023-05-15T07:53:57.540Z,43.90
2023-05-15T07:54:57.559Z,44.60
2023-05-15T07:55:57.529Z,43.60
2023-05-15T07:56:57.554Z,44.60
2023-05-15T07:57:57.488Z,44.40
2023-05-15T07:58:57.511Z,43.40
2023-05-15T07:59:57.481Z,43.50
2023-05-15T08:00:57.465Z,44.90
2023-05-15T08:01:57.510Z,44.80
2023-05-15T08:02:57.560Z,44.30
2023-05-15T08:03:57.505Z,44.70
2023-05-15T08:04:57.444Z,45.00
2023-05-15T08:05:57.402Z,45.40
2023-05-15T08:06:57.404Z,44.50
2023-05-15T08:07:57.378Z,47.40
2023-05-15T08:08:57.395Z,45.40
2023-05-15T08:09:57.357Z,44.80
2023-05-15T08:10:57.346Z,46.00
2023-05-15T08:11:57.364Z,46.40
2023-05-15T08:12:57.349Z,45.80
2023-05-15T08:13:57.403Z,46.70
2023-05-15T08:14:57.301Z,46.20
2023-05-15T08:15:57.329Z,46.70
2023-05-15T08:16:57.309Z,45.60
2023-05-15T08:17:57.355Z,46.30
2023-05-15T08:18:57.330Z,45.30
2023-05-15T08:19:57.297Z,44.80
2023-05-15T08:20:57.247Z,45.00
2023-05-15T08:21:57.238Z,45.10
2023-05-15T08:22:57.273Z,45.30
2023-05-15T08:23:57.775Z,44.50
2023-05-15T08:24:57.234Z,45.90
2023-05-15T08:25:57.196Z,43.70
2023-05-15T08:26:57.183Z,44.50
2023-05-15T08:27:57.166Z,45.50
2023-05-15T08:28:57.177Z,44.60
2023-05-15T08:29:57.160Z,46.70
2023-05-15T08:30:57.170Z,47.20
2023-05-15T08:31:57.150Z,45.00
2023-05-15T08:32:57.186Z,45.30
2023-05-15T08:33:57.092Z,44.30
2023-05-15T08:34:57.103Z,46.00
2023-05-15T08:35:57.075Z,45.50
2023-05-15T08:36:57.075Z,46.60
2023-05-15T08:37:57.052Z,47.40
2023-05-15T08:38:57.047Z,47.30
2023-05-15T08:39:57.039Z,47.60
2023-05-15T08:40:57.022Z,45.50
2023-05-15T08:41:57.020Z,46.50
2023-05-15T08:42:56.997Z,46.40
2023-05-15T08:43:56.984Z,45.00
2023-05-15T08:44:56.977Z,45.80
2023-05-15T08:45:56.977Z,45.90
2023-05-15T08:46:57.108Z,48.70
2023-05-15T08:47:57.136Z,49.00
2023-05-15T08:48:56.954Z,48.10
2023-05-15T08:49:56.946Z,50.30
2023-05-15T08:50:56.935Z,46.80
2023-05-15T08:51:56.901Z,47.80
2023-05-15T08:52:56.885Z,48.20
2023-05-15T08:53:56.866Z,49.10
2023-05-15T08:54:56.910Z,46.90
2023-05-15T08:55:56.860Z,47.60
2023-05-15T08:56:56.922Z,49.00
2023-05-15T08:57:56.848Z,47.00
2023-05-15T08:58:56.819Z,48.00
2023-05-15T08:59:56.807Z,46.90
2023-05-15T09:00:56.817Z,46.60
2023-05-15T09:01:57.730Z,46.50
2023-05-15T09:02:56.844Z,45.90
2023-05-15T09:03:56.897Z,46.90
2023-05-15T09:04:56.807Z,46.20
2023-05-15T09:05:56.763Z,45.60
2023-05-15T09:06:56.726Z,45.10
2023-05-15T09:07:56.739Z,45.30
2023-05-15T09:08:56.713Z,45.30
2023-05-15T09:09:56.749Z,45.60
2023-05-15T09:10:56.698Z,46.40
2023-05-15T09:11:56.694Z,47.20
2023-05-15T09:12:56.672Z,46.00
2023-05-15T09:13:56.665Z,45.70
2023-05-15T09:14:56.672Z,45.40
2023-05-15T09:15:56.625Z,45.30
2023-05-15T09:16:56.683Z,45.30
2023-05-15T09:17:56.695Z,45.10
2023-05-15T09:18:56.678Z,44.90
2023-05-15T09:19:56.600Z,43.90
2023-05-15T09:20:56.739Z,44.70
2023-05-15T09:21:56.564Z,44.40
2023-05-15T09:22:56.569Z,42.40
2023-05-15T09:23:56.622Z,41.90
2023-05-15T09:24:56.637Z,41.90
2023-05-15T09:25:56.603Z,43.30
2023-05-15T09:26:56.530Z,44.10
2023-05-15T09:27:56.562Z,42.90
2023-05-15T09:28:56.569Z,41.70
2023-05-15T09:29:56.511Z,41.80
2023-05-15T09:30:56.473Z,43.30
2023-05-15T09:31:56.510Z,42.80
2023-05-15T09:32:56.693Z,43.80
2023-05-15T09:33:56.467Z,41.20
2023-05-15T09:34:56.430Z,39.80
2023-05-15T09:35:56.411Z,40.10
2023-05-15T09:36:56.415Z,40.10
2023-05-15T09:37:56.405Z,39.90
2023-05-15T09:38:56.392Z,40.60
2023-05-15T09:39:56.368Z,39.90
2023-05-15T09:40:56.382Z,39.00
2023-05-15T09:41:56.369Z,39.20
2023-05-15T09:42:56.361Z,40.50
2023-05-15T09:43:56.343Z,39.60
2023-05-15T09:44:56.321Z,38.40
2023-05-15T09:45:56.426Z,39.40
2023-05-15T09:46:56.369Z,38.90
2023-05-15T09:47:56.435Z,37.50
2023-05-15T09:48:56.288Z,37.40
2023-05-15T09:49:56.264Z,38.40
2023-05-15T09:50:56.299Z,39.00
2023-05-15T09:51:56.284Z,39.10
2023-05-15T09:52:56.282Z,38.00
2023-05-15T09:53:56.226Z,39.60
2023-05-15T09:54:56.216Z,38.20
2023-05-15T09:55:56.214Z,38.30
2023-05-15T09:56:56.459Z,37.20
2023-05-15T09:57:56.174Z,39.00
2023-05-15T09:58:56.176Z,38.10
2023-05-15T09:59:56.156Z,39.20
2023-05-15T10:00:56.220Z,37.00
2023-05-15T10:01:56.161Z,38.20
2023-05-15T10:02:56.141Z,37.70
2023-05-15T10:03:56.111Z,36.70
2023-05-15T10:04:56.163Z,37.70
2023-05-15T10:05:56.132Z,38.40
2023-05-15T10:06:56.087Z,37.20
2023-05-15T10:07:56.077Z,37.10
2023-05-15T10:08:56.256Z,35.60
2023-05-15T10:09:56.065Z,36.90
2023-05-15T10:10:56.045Z,36.10
2023-05-15T10:11:56.039Z,35.40
2023-05-15T10:12:56.018Z,37.90
2023-05-15T10:13:56.013Z,38.00
2023-05-15T10:14:56.034Z,40.00
2023-05-15T10:15:56.134Z,38.40
2023-05-15T10:16:55.985Z,38.50
2023-05-15T10:17:56.024Z,37.80
2023-05-15T10:18:56.089Z,39.10
2023-05-15T10:19:58.737Z,39.50
2023-05-15T10:20:55.938Z,39.60
2023-05-15T10:21:55.920Z,38.80
2023-05-15T10:22:55.935Z,38.10
2023-05-15T10:23:55.931Z,38.50
2023-05-15T10:24:55.906Z,38.90
2023-05-15T10:25:55.885Z,38.40
2023-05-15T10:26:55.899Z,38.20
2023-05-15T10:27:55.909Z,37.30
2023-05-15T10:28:55.906Z,34.70
2023-05-15T10:29:55.877Z,35.10
2023-05-15T10:30:55.872Z,34.20
2023-05-15T10:31:55.896Z,33.50
2023-05-15T10:32:55.827Z,32.60
2023-05-15T10:33:55.815Z,33.70
2023-05-15T10:34:55.796Z,31.60
2023-05-15T10:35:55.786Z,31.90
2023-05-15T10:36:55.766Z,30.70
2023-05-15T10:37:55.781Z,30.50
2023-05-15T10:38:55.863Z,30.80
2023-05-15T10:39:55.746Z,30.80
2023-05-15T10:41:05.594Z,31.10
2023-05-15T10:41:56.809Z,32.10
2023-05-15T10:42:55.723Z,31.60
2023-05-15T10:43:55.707Z,32.00
2023-05-15T10:44:55.698Z,32.60
2023-05-15T10:45:55.693Z,32.90
2023-05-15T10:46:55.721Z,31.10
2023-05-15T10:47:55.707Z,31.90
2023-05-15T10:48:55.652Z,30.50
2023-05-15T10:49:55.627Z,28.70
2023-05-15T10:50:55.639Z,27.60
2023-05-15T10:51:55.626Z,23.40
2023-05-15T10:52:55.651Z,22.80
2023-05-15T10:53:55.600Z,21.80
2023-05-15T10:54:55.587Z,22.90
2023-05-15T10:55:55.630Z,23.60
2023-05-15T10:56:55.589Z,24.00
2023-05-15T10:57:55.582Z,22.90
2023-05-15T10:58:55.554Z,26.00
2023-05-15T10:59:55.548Z,23.90
2023-05-15T11:00:55.577Z,22.70
2023-05-15T11:01:55.521Z,21.90
2023-05-15T11:02:55.663Z,21.90
2023-05-15T11:03:55.517Z,21.30
2023-05-15T11:04:55.496Z,20.10
2023-05-15T11:05:55.483Z,20.30
2023-05-15T11:06:55.479Z,20.60
2023-05-15T11:07:55.450Z,18.60
2023-05-15T11:08:55.447Z,18.50
2023-05-15T11:09:55.434Z,18.50
2023-05-15T11:10:55.477Z,19.10
2023-05-15T11:11:55.699Z,19.40
2023-05-15T11:12:55.406Z,19.60
2023-05-15T11:13:55.400Z,19.10
2023-05-15T11:14:55.395Z,16.50
2023-05-15T11:15:55.383Z,18.80
2023-05-15T11:16:55.599Z,19.80
2023-05-15T11:17:55.386Z,18.80
2023-05-15T11:18:55.370Z,19.00
2023-05-15T11:19:55.339Z,18.50
2023-05-15T11:20:55.332Z,18.60
2023-05-15T11:21:55.321Z,18.00
2023-05-15T11:22:55.318Z,18.00
2023-05-15T11:23:55.289Z,18.00
2023-05-15T11:24:55.307Z,17.60
2023-05-15T11:25:55.286Z,16.10
2023-05-15T11:26:56.103Z,15.50
2023-05-15T11:27:55.252Z,17.20
2023-05-15T11:28:55.261Z,17.30
2023-05-15T11:29:55.246Z,17.60
2023-05-15T11:30:55.268Z,17.50
2023-05-15T11:31:55.317Z,17.30
2023-05-15T11:32:55.276Z,17.10
2023-05-15T11:33:55.180Z,15.60
2023-05-15T11:34:55.193Z,15.30
2023-05-15T11:35:55.171Z,15.50
2023-05-15T11:36:55.192Z,13.90
2023-05-15T11:37:55.185Z,13.00
2023-05-15T11:38:55.152Z,12.70
2023-05-15T11:39:55.134Z,12.70
2023-05-15T11:40:55.155Z,12.60
2023-05-15T11:41:55.117Z,12.50
2023-05-15T11:42:55.158Z,12.20
2023-05-15T11:43:55.090Z,12.70
2023-05-15T11:44:55.164Z,12.00
2023-05-15T11:45:55.069Z,13.40
2023-05-15T11:46:55.150Z,14.00
2023-05-15T11:47:55.093Z,14.80
2023-05-15T11:48:55.052Z,14.30
2023-05-15T11:49:55.036Z,13.20
2023-05-15T11:50:55.026Z,13.60
2023-05-15T11:51:55.009Z,14.50
2023-05-15T11:52:55.013Z,14.20
2023-05-15T11:53:55.022Z,14.00
2023-05-15T11:54:54.984Z,13.40
2023-05-15T11:55:54.964Z,13.70
2023-05-15T11:56:54.973Z,13.30
2023-05-15T11:57:54.953Z,13.50
2023-05-15T11:58:54.967Z,12.50
2023-05-15T11:59:54.930Z,13.00
2023-05-15T12:00:54.929Z,14.00
2023-05-15T12:01:54.918Z,12.70
2023-05-15T12:02:54.978Z,13.70
2023-05-15T12:03:55.356Z,12.80
2023-05-15T12:04:54.925Z,9.70
2023-05-15T12:06:54.865Z,9.20
2023-05-15T12:07:54.939Z,9.30
2023-05-15T12:08:54.848Z,9.30
2023-05-15T12:09:54.935Z,9.10
2023-05-15T12:10:54.885Z,8.70
2023-05-15T12:11:54.827Z,8.80
2023-05-15T12:12:54.808Z,9.30
2023-05-15T12:13:55.011Z,8.60
2023-05-15T12:14:54.789Z,7.90
2023-05-15T12:15:54.789Z,8.80
2023-05-15T12:16:54.808Z,8.10
2023-05-15T12:17:54.806Z,7.80
2023-05-15T12:18:54.812Z,7.60
2023-05-15T12:19:54.745Z,8.50
2023-05-15T12:20:54.755Z,8.70
2023-05-15T12:21:54.741Z,9.60
2023-05-15T12:22:54.724Z,10.00
2023-05-15T12:24:54.690Z,9.30
2023-05-15T12:25:54.697Z,9.90
2023-05-15T12:26:57.205Z,11.10
2023-05-15T12:27:54.651Z,9.70
2023-05-15T12:28:54.673Z,9.70
2023-05-15T12:29:54.651Z,8.80
2023-05-15T12:30:54.649Z,8.20
2023-05-15T12:31:54.731Z,8.30
2023-05-15T12:32:54.638Z,8.50
2023-05-15T12:33:54.648Z,9.20
2023-05-15T12:34:54.587Z,10.10
2023-05-15T12:35:54.965Z,9.10
2023-05-15T12:36:54.553Z,11.20
2023-05-15T12:37:54.557Z,9.90
2023-05-15T12:38:54.560Z,10.30
2023-05-15T12:39:54.543Z,11.40
2023-05-15T12:40:54.536Z,13.50
2023-05-15T12:41:54.533Z,12.20
2023-05-15T12:42:54.497Z,9.90
2023-05-15T12:43:54.509Z,9.10
2023-05-15T12:44:54.520Z,8.80
2023-05-15T12:45:54.642Z,8.90
2023-05-15T12:46:54.466Z,8.20
2023-05-15T12:47:54.466Z,7.70
2023-05-15T12:48:54.495Z,7.90
2023-05-15T12:49:54.444Z,10.50
2023-05-15T12:50:54.420Z,9.60
2023-05-15T12:51:54.413Z,8.50
2023-05-15T12:52:54.430Z,9.10
2023-05-15T12:53:54.436Z,8.40
2023-05-15T12:54:54.376Z,8.50
2023-05-15T12:55:54.372Z,7.50
2023-05-15T12:56:56.303Z,7.80